createdAt,value
2023-05-09T00:00:19.254Z,763.00
2023-05-09T00:01:18.289Z,761.00
2023-05-09T00:02:19.272Z,759.00
2023-05-09T00:03:18.298Z,764.00
2023-05-09T00:04:19.347Z,756.00
2023-05-09T00:05:18.274Z,758.00
2023-05-09T00:06:18.376Z,757.00
2023-05-09T00:07:19.310Z,756.00
2023-05-09T00:08:19.334Z,753.00
2023-05-09T00:09:19.346Z,752.00
2023-05-09T00:10:19.351Z,764.00
2023-05-09T00:11:19.483Z,761.00
2023-05-09T00:12:19.398Z,751.00
2023-05-09T00:13:18.463Z,765.00
2023-05-09T00:14:19.444Z,760.00
2023-05-09T00:15:19.424Z,756.00
2023-05-09T00:16:18.468Z,745.00
2023-05-09T00:17:18.490Z,759.00
2023-05-09T00:18:19.513Z,740.00
2023-05-09T00:19:20.037Z,752.00
2023-05-09T00:20:18.519Z,764.00
2023-05-09T00:21:19.540Z,752.00
2023-05-09T00:22:19.537Z,748.00
2023-05-09T00:23:19.523Z,755.00
2023-05-09T00:24:19.560Z,763.00
2023-05-09T00:25:18.542Z,752.00
2023-05-09T00:26:19.575Z,751.00
2023-05-09T00:27:18.736Z,740.00
2023-05-09T00:28:19.561Z,759.00
2023-05-09T00:29:19.616Z,765.00
2023-05-09T00:30:19.580Z,743.00
2023-05-09T00:31:18.566Z,755.00
2023-05-09T00:32:18.591Z,740.00
2023-05-09T00:33:18.554Z,748.00
2023-05-09T00:34:19.575Z,743.00
2023-05-09T00:35:19.565Z,739.00
2023-05-09T00:36:19.571Z,752.00
2023-05-09T00:37:18.566Z,743.00
2023-05-09T00:38:18.602Z,746.00
2023-05-09T00:39:19.626Z,745.00
2023-05-09T00:40:18.571Z,750.00
2023-05-09T00:41:18.556Z,748.00
2023-05-09T00:42:19.561Z,742.00
2023-05-09T00:43:19.718Z,731.00
2023-05-09T00:44:19.575Z,735.00
2023-05-09T00:45:19.570Z,745.00
2023-05-09T00:46:19.576Z,743.00
2023-05-09T00:47:18.611Z,752.00
2023-05-09T00:48:18.551Z,745.00
2023-05-09T00:49:18.565Z,737.00
2023-05-09T00:50:19.558Z,734.00
2023-05-09T00:51:18.556Z,729.00
2023-05-09T00:52:19.550Z,723.00
2023-05-09T00:53:18.537Z,739.00
2023-05-09T00:54:19.569Z,726.00
2023-05-09T00:55:19.580Z,737.00
2023-05-09T00:56:19.535Z,736.00
2023-05-09T00:57:19.529Z,728.00
2023-05-09T00:58:19.535Z,729.00
2023-05-09T00:59:19.660Z,732.00
2023-05-09T01:00:18.516Z,721.00
2023-05-09T01:01:18.567Z,734.00
2023-05-09T01:02:19.521Z,735.00
2023-05-09T01:03:18.620Z,725.00
2023-05-09T01:04:19.539Z,732.00
2023-05-09T01:05:19.527Z,731.00
2023-05-09T01:06:18.495Z,725.00
2023-05-09T01:07:19.510Z,734.00
2023-05-09T01:08:19.536Z,730.00
2023-05-09T01:09:19.498Z,724.00
2023-05-09T01:10:19.496Z,726.00
2023-05-09T01:11:18.474Z,726.00
2023-05-09T01:12:19.510Z,732.00
2023-05-09T01:13:19.521Z,729.00
2023-05-09T01:14:19.482Z,719.00
2023-05-09T01:15:18.614Z,718.00
2023-05-09T01:16:18.567Z,716.00
2023-05-09T01:17:19.447Z,729.00
2023-05-09T01:18:19.436Z,700.00
2023-05-09T01:19:19.440Z,716.00
2023-05-09T01:20:18.434Z,722.00
2023-05-09T01:21:18.460Z,711.00
2023-05-09T01:22:19.427Z,708.00
2023-05-09T01:23:18.416Z,719.00
2023-05-09T01:24:18.411Z,718.00
2023-05-09T01:25:19.407Z,729.00
2023-05-09T01:26:18.432Z,718.00
2023-05-09T01:27:18.399Z,710.00
2023-05-09T01:28:19.415Z,704.00
2023-05-09T01:29:19.427Z,692.00
2023-05-09T01:30:18.412Z,711.00
2023-05-09T01:31:19.578Z,709.00
2023-05-09T01:32:19.455Z,712.00
2023-05-09T01:33:19.392Z,732.00
2023-05-09T01:34:19.396Z,704.00
2023-05-09T01:35:18.425Z,704.00
2023-05-09T01:36:19.429Z,710.00
2023-05-09T01:37:19.398Z,704.00
2023-05-09T01:38:19.397Z,704.00
2023-05-09T01:39:19.398Z,710.00
2023-05-09T01:40:19.412Z,715.00
2023-05-09T01:41:18.395Z,706.00
2023-05-09T01:42:19.378Z,716.00
2023-05-09T01:43:19.384Z,699.00
2023-05-09T01:44:18.455Z,698.00
2023-05-09T01:45:19.389Z,705.00
2023-05-09T01:46:19.527Z,707.00
2023-05-09T01:47:19.526Z,699.00
2023-05-09T01:48:19.489Z,702.00
2023-05-09T01:49:19.387Z,694.00
2023-05-09T01:50:19.386Z,698.00
2023-05-09T01:51:19.361Z,702.00
2023-05-09T01:52:19.373Z,700.00
2023-05-09T01:53:19.372Z,692.00
2023-05-09T01:54:19.373Z,684.00
2023-05-09T01:55:19.378Z,691.00
2023-05-09T01:56:19.364Z,697.00
2023-05-09T01:57:18.367Z,691.00
2023-05-09T01:58:19.384Z,696.00
2023-05-09T01:59:19.361Z,701.00
2023-05-09T02:00:19.397Z,683.00
2023-05-09T02:01:19.378Z,690.00
2023-05-09T02:02:19.413Z,693.00
2023-05-09T02:03:19.482Z,688.00
2023-05-09T02:04:18.335Z,700.00
2023-05-09T02:05:18.363Z,696.00
2023-05-09T02:06:19.338Z,693.00
2023-05-09T02:07:19.322Z,688.00
2023-05-09T02:08:19.311Z,687.00
2023-05-09T02:09:19.366Z,682.00
2023-05-09T02:10:18.369Z,677.00
2023-05-09T02:11:18.329Z,678.00
2023-05-09T02:12:18.310Z,677.00
2023-05-09T02:13:18.440Z,687.00
2023-05-09T02:14:19.334Z,685.00
2023-05-09T02:15:19.334Z,684.00
2023-05-09T02:16:20.733Z,672.00
2023-05-09T02:17:19.405Z,693.00
2023-05-09T02:18:19.401Z,691.00
2023-05-09T02:19:18.571Z,665.00
2023-05-09T02:20:19.420Z,682.00
2023-05-09T02:21:19.420Z,681.00
2023-05-09T02:22:19.741Z,668.00
2023-05-09T02:23:18.432Z,678.00
2023-05-09T02:24:19.427Z,668.00
2023-05-09T02:25:18.434Z,673.00
2023-05-09T02:26:19.449Z,674.00
2023-05-09T02:27:19.499Z,672.00
2023-05-09T02:28:18.452Z,676.00
2023-05-09T02:29:19.461Z,684.00
2023-05-09T02:30:19.470Z,678.00
2023-05-09T02:31:19.537Z,670.00
2023-05-09T02:32:18.461Z,681.00
2023-05-09T02:33:19.497Z,680.00
2023-05-09T02:34:18.472Z,677.00
2023-05-09T02:35:19.603Z,669.00
2023-05-09T02:36:19.495Z,677.00
2023-05-09T02:37:19.461Z,686.00
2023-05-09T02:38:19.511Z,672.00
2023-05-09T02:39:19.452Z,680.00
2023-05-09T02:40:19.460Z,672.00
2023-05-09T02:41:19.480Z,689.00
2023-05-09T02:42:18.489Z,664.00
2023-05-09T02:43:18.459Z,668.00
2023-05-09T02:44:19.484Z,673.00
2023-05-09T02:45:19.533Z,664.00
2023-05-09T02:46:19.549Z,669.00
2023-05-09T02:47:19.470Z,668.00
2023-05-09T02:48:19.517Z,665.00
2023-05-09T02:49:31.568Z,665.00
2023-05-09T02:50:19.498Z,665.00
2023-05-09T02:51:19.637Z,666.00
2023-05-09T02:52:18.467Z,666.00
2023-05-09T02:53:19.473Z,666.00
2023-05-09T02:54:19.453Z,674.00
2023-05-09T02:55:19.445Z,673.00
2023-05-09T02:56:19.466Z,663.00
2023-05-09T02:57:18.420Z,663.00
2023-05-09T02:58:18.427Z,671.00
2023-05-09T02:59:19.418Z,664.00
2023-05-09T03:00:19.394Z,662.00
2023-05-09T03:01:18.410Z,666.00
2023-05-09T03:02:18.388Z,660.00
2023-05-09T03:03:19.507Z,665.00
2023-05-09T03:04:19.387Z,662.00
2023-05-09T03:05:19.367Z,664.00
2023-05-09T03:06:19.360Z,664.00
2023-05-09T03:07:18.473Z,663.00
2023-05-09T03:08:18.345Z,657.00
2023-05-09T03:09:19.338Z,661.00
2023-05-09T03:10:19.334Z,664.00
2023-05-09T03:11:19.370Z,659.00
2023-05-09T03:12:19.317Z,660.00
2023-05-09T03:13:19.456Z,661.00
2023-05-09T03:14:19.309Z,660.00
2023-05-09T03:15:19.298Z,664.00
2023-05-09T03:16:18.325Z,657.00
2023-05-09T03:17:19.282Z,661.00
2023-05-09T03:18:19.314Z,659.00
2023-05-09T03:19:18.275Z,663.00
2023-05-09T03:20:19.275Z,659.00
2023-05-09T03:21:19.250Z,665.00
2023-05-09T03:22:18.259Z,660.00
2023-05-09T03:23:18.356Z,661.00
2023-05-09T03:24:19.221Z,662.00
2023-05-09T03:25:19.245Z,661.00
2023-05-09T03:26:19.237Z,662.00
2023-05-09T03:27:19.267Z,655.00
2023-05-09T03:28:18.225Z,660.00
2023-05-09T03:29:19.191Z,661.00
2023-05-09T03:30:19.206Z,660.00
2023-05-09T03:31:19.225Z,658.00
2023-05-09T03:32:18.233Z,658.00
2023-05-09T03:33:18.235Z,654.00
2023-05-09T03:34:19.265Z,654.00
2023-05-09T03:35:19.246Z,657.00
2023-05-09T03:36:19.260Z,651.00
2023-05-09T03:37:19.265Z,654.00
2023-05-09T03:38:19.296Z,655.00
2023-05-09T03:39:19.414Z,652.00
2023-05-09T03:40:18.300Z,652.00
2023-05-09T03:41:19.346Z,657.00
2023-05-09T03:42:18.331Z,649.00
2023-05-09T03:43:19.352Z,654.00
2023-05-09T03:44:19.365Z,659.00
2023-05-09T03:45:18.354Z,655.00
2023-05-09T03:46:19.426Z,662.00
2023-05-09T03:47:19.379Z,653.00
2023-05-09T03:48:18.399Z,650.00
2023-05-09T03:49:19.410Z,651.00
2023-05-09T03:50:19.392Z,655.00
2023-05-09T03:51:18.418Z,657.00
2023-05-09T03:52:19.419Z,650.00
2023-05-09T03:53:19.432Z,651.00
2023-05-09T03:54:18.440Z,652.00
2023-05-09T03:55:18.584Z,654.00
2023-05-09T03:56:19.471Z,653.00
2023-05-09T03:57:19.484Z,655.00
2023-05-09T03:58:19.514Z,659.00
2023-05-09T03:59:19.513Z,647.00
2023-05-09T04:00:18.513Z,652.00
2023-05-09T04:01:19.574Z,657.00
2023-05-09T04:02:19.578Z,654.00
2023-05-09T04:03:19.622Z,650.00
2023-05-09T04:04:19.541Z,653.00
2023-05-09T04:05:19.548Z,652.00
2023-05-09T04:06:19.554Z,652.00
2023-05-09T04:07:18.568Z,647.00
2023-05-09T04:08:19.569Z,649.00
2023-05-09T04:09:19.584Z,652.00
2023-05-09T04:10:19.581Z,652.00
2023-05-09T04:11:19.748Z,654.00
2023-05-09T04:12:18.606Z,654.00
2023-05-09T04:13:19.703Z,654.00
2023-05-09T04:14:19.629Z,653.00
2023-05-09T04:15:18.638Z,648.00
2023-05-09T04:16:19.700Z,652.00
2023-05-09T04:17:19.650Z,650.00
2023-05-09T04:18:18.650Z,654.00
2023-05-09T04:19:18.687Z,654.00
2023-05-09T04:20:19.694Z,648.00
2023-05-09T04:21:19.694Z,649.00
2023-05-09T04:22:19.724Z,651.00
2023-05-09T04:23:18.726Z,652.00
2023-05-09T04:24:18.740Z,646.00
2023-05-09T04:25:19.746Z,653.00
2023-05-09T04:26:19.770Z,649.00
2023-05-09T04:27:19.795Z,644.00
2023-05-09T04:28:19.801Z,646.00
2023-05-09T04:29:19.807Z,651.00
2023-05-09T04:30:19.823Z,651.00
2023-05-09T04:31:18.917Z,650.00
2023-05-09T04:32:18.923Z,647.00
2023-05-09T04:33:19.850Z,650.00
2023-05-09T04:34:19.913Z,653.00
2023-05-09T04:35:20.875Z,654.00
2023-05-09T04:36:18.930Z,648.00
2023-05-09T04:37:19.922Z,650.00
2023-05-09T04:38:19.956Z,643.00
2023-05-09T04:39:19.959Z,643.00
2023-05-09T04:40:19.998Z,646.00
2023-05-09T04:41:19.005Z,649.00
2023-05-09T04:42:20.019Z,646.00
2023-05-09T04:43:19.142Z,652.00
2023-05-09T04:44:20.039Z,650.00
2023-05-09T04:45:19.056Z,651.00
2023-05-09T04:46:20.129Z,642.00
2023-05-09T04:47:20.131Z,648.00
2023-05-09T04:48:19.083Z,648.00
2023-05-09T04:49:20.110Z,648.00
2023-05-09T04:50:19.104Z,651.00
2023-05-09T04:51:20.122Z,650.00
2023-05-09T04:52:19.141Z,647.00
2023-05-09T04:53:20.150Z,639.00
2023-05-09T04:54:20.160Z,644.00
2023-05-09T04:55:19.176Z,643.00
2023-05-09T04:56:20.177Z,644.00
2023-05-09T04:57:19.287Z,644.00
2023-05-09T04:58:20.214Z,643.00
2023-05-09T04:59:19.338Z,647.00
2023-05-09T05:00:19.232Z,648.00
2023-05-09T05:01:20.287Z,648.00
2023-05-09T05:02:20.266Z,649.00
2023-05-09T05:03:20.269Z,649.00
2023-05-09T05:04:20.352Z,653.00
2023-05-09T05:05:24.353Z,646.00
2023-05-09T05:06:20.288Z,647.00
2023-05-09T05:07:20.307Z,648.00
2023-05-09T05:08:20.276Z,647.00
2023-05-09T05:09:19.288Z,647.00
2023-05-09T05:10:20.255Z,642.00
2023-05-09T05:11:19.235Z,641.00
2023-05-09T05:12:20.264Z,641.00
2023-05-09T05:13:19.300Z,638.00
2023-05-09T05:14:19.247Z,643.00
2023-05-09T05:15:20.335Z,639.00
2023-05-09T05:16:20.209Z,638.00
2023-05-09T05:17:19.193Z,637.00
2023-05-09T05:18:20.224Z,636.00
2023-05-09T05:19:20.215Z,638.00
2023-05-09T05:20:19.191Z,629.00
2023-05-09T05:21:20.214Z,635.00
2023-05-09T05:22:20.157Z,638.00
2023-05-09T05:23:19.154Z,645.00
2023-05-09T05:24:19.140Z,641.00
2023-05-09T05:25:20.151Z,639.00
2023-05-09T05:26:20.159Z,637.00
2023-05-09T05:27:19.148Z,643.00
2023-05-09T05:28:20.103Z,637.00
2023-05-09T05:29:19.117Z,635.00
2023-05-09T05:30:19.121Z,635.00
2023-05-09T05:31:19.274Z,632.00
2023-05-09T05:32:19.094Z,635.00
2023-05-09T05:33:20.098Z,630.00
2023-05-09T05:34:20.100Z,630.00
2023-05-09T05:35:19.073Z,632.00
2023-05-09T05:36:19.059Z,635.00
2023-05-09T05:37:20.072Z,636.00
2023-05-09T05:38:19.092Z,637.00
2023-05-09T05:39:19.092Z,637.00
2023-05-09T05:40:20.039Z,634.00
2023-05-09T05:41:20.050Z,643.00
2023-05-09T05:42:19.044Z,643.00
2023-05-09T05:43:19.017Z,637.00
2023-05-09T05:44:20.037Z,638.00
2023-05-09T05:45:20.069Z,643.00
2023-05-09T05:46:20.181Z,647.00
2023-05-09T05:47:19.253Z,650.00
2023-05-09T05:48:20.162Z,659.00
2023-05-09T05:49:19.234Z,656.00
2023-05-09T05:50:20.308Z,663.00
2023-05-09T05:51:20.369Z,665.00
2023-05-09T05:52:19.425Z,663.00
2023-05-09T05:53:19.503Z,656.00
2023-05-09T05:54:20.535Z,650.00
2023-05-09T05:55:20.582Z,672.00
2023-05-09T05:56:20.631Z,678.00
2023-05-09T05:57:20.650Z,699.00
2023-05-09T05:58:20.662Z,712.00
2023-05-09T05:59:19.716Z,730.00
2023-05-09T06:00:20.732Z,740.00
2023-05-09T06:01:20.734Z,792.00
2023-05-09T06:02:19.828Z,968.00
2023-05-09T06:03:20.006Z,1026.00
2023-05-09T06:04:21.342Z,1008.00
2023-05-09T06:05:20.805Z,1014.00
2023-05-09T06:06:20.830Z,997.00
2023-05-09T06:07:20.850Z,998.00
2023-05-09T06:08:20.931Z,1022.00
2023-05-09T06:09:19.991Z,1026.00
2023-05-09T06:10:21.061Z,1029.00
2023-05-09T06:11:21.134Z,1054.00
2023-05-09T06:12:20.222Z,1033.00
2023-05-09T06:13:21.282Z,1041.00
2023-05-09T06:14:21.265Z,1090.00
2023-05-09T06:15:21.301Z,1066.00
2023-05-09T06:16:20.733Z,1053.00
2023-05-09T06:17:21.403Z,1063.00
2023-05-09T06:18:21.444Z,1108.00
2023-05-09T06:19:20.618Z,1083.00
2023-05-09T06:20:21.517Z,1127.00
2023-05-09T06:21:20.564Z,1119.00
2023-05-09T06:22:21.577Z,1113.00
2023-05-09T06:23:20.624Z,1117.00
2023-05-09T06:25:20.571Z,1167.00
2023-05-09T06:26:20.559Z,1172.00
2023-05-09T06:27:20.574Z,1179.00
2023-05-09T06:28:21.574Z,1196.00
2023-05-09T06:29:21.557Z,1213.00
2023-05-09T06:30:26.312Z,1221.00
2023-05-09T06:31:21.981Z,1223.00
2023-05-09T06:32:21.516Z,1223.00
2023-05-09T06:33:21.546Z,1226.00
2023-05-09T06:34:20.512Z,1230.00
2023-05-09T06:35:21.757Z,1226.00
2023-05-09T06:36:21.495Z,1221.00
2023-05-09T06:37:21.509Z,1231.00
2023-05-09T06:38:21.526Z,1261.00
2023-05-09T06:39:20.505Z,1276.00
2023-05-09T06:40:21.491Z,1270.00
2023-05-09T06:41:20.453Z,1265.00
2023-05-09T06:42:21.497Z,1275.00
2023-05-09T06:43:21.451Z,1262.00
2023-05-09T06:44:20.496Z,1283.00
2023-05-09T06:45:21.506Z,1277.00
2023-05-09T06:46:21.454Z,1267.00
2023-05-09T06:47:21.424Z,1252.00
2023-05-09T06:48:20.398Z,1267.00
2023-05-09T06:49:20.503Z,1260.00
2023-05-09T06:50:21.520Z,1269.00
2023-05-09T06:51:20.686Z,1280.00
2023-05-09T06:52:21.653Z,1281.00
2023-05-09T06:53:20.681Z,1328.00
2023-05-09T06:54:20.873Z,1377.00
2023-05-09T06:55:21.790Z,1397.00
2023-05-09T06:56:21.785Z,1397.00
2023-05-09T06:57:20.843Z,1432.00
2023-05-09T06:58:22.846Z,1415.00
2023-05-09T06:59:21.919Z,1417.00
2023-05-09T07:00:21.872Z,1414.00
2023-05-09T07:01:20.902Z,1400.00
2023-05-09T07:02:20.891Z,1396.00
2023-05-09T07:03:21.943Z,1405.00
2023-05-09T07:04:20.930Z,1403.00
2023-05-09T07:05:22.040Z,1398.00
2023-05-09T07:06:21.963Z,1391.00
2023-05-09T07:07:22.096Z,1365.00
2023-05-09T07:08:22.990Z,1363.00
2023-05-09T07:09:21.996Z,1357.00
2023-05-09T07:10:22.020Z,1348.00
2023-05-09T07:11:21.006Z,1340.00
2023-05-09T07:12:21.047Z,1320.00
2023-05-09T07:13:21.154Z,1322.00
2023-05-09T07:14:22.073Z,1310.00
2023-05-09T07:15:36.834Z,1311.00
2023-05-09T07:16:22.120Z,1312.00
2023-05-09T07:17:23.983Z,1306.00
2023-05-09T07:18:22.072Z,1308.00
2023-05-09T07:19:21.065Z,1297.00
2023-05-09T07:20:22.043Z,1272.00
2023-05-09T07:21:22.074Z,1251.00
2023-05-09T07:22:22.089Z,1250.00
2023-05-09T07:23:21.183Z,1235.00
2023-05-09T07:24:22.024Z,1237.00
2023-05-09T07:25:22.033Z,1221.00
2023-05-09T07:26:21.011Z,1201.00
2023-05-09T07:27:22.005Z,1191.00
2023-05-09T07:28:22.014Z,1184.00
2023-05-09T07:29:20.997Z,1170.00
2023-05-09T07:30:22.008Z,1172.00
2023-05-09T07:31:21.002Z,1163.00
2023-05-09T07:32:22.028Z,1158.00
2023-05-09T07:33:21.960Z,1131.00
2023-05-09T07:34:20.965Z,1114.00
2023-05-09T07:35:21.968Z,1099.00
2023-05-09T07:36:21.924Z,1080.00
2023-05-09T07:37:21.952Z,1076.00
2023-05-09T07:38:21.911Z,1064.00
2023-05-09T07:39:21.022Z,1047.00
2023-05-09T07:40:20.911Z,1044.00
2023-05-09T07:41:20.918Z,1039.00
2023-05-09T07:42:21.967Z,1019.00
2023-05-09T07:43:20.880Z,1010.00
2023-05-09T07:44:21.910Z,1004.00
2023-05-09T07:45:23.707Z,987.00
2023-05-09T07:46:21.930Z,978.00
2023-05-09T07:47:20.911Z,973.00
2023-05-09T07:48:21.831Z,932.00
2023-05-09T07:49:21.847Z,924.00
2023-05-09T07:50:21.872Z,901.00
2023-05-09T07:51:20.834Z,882.00
2023-05-09T07:52:20.832Z,887.00
2023-05-09T07:53:21.808Z,876.00
2023-05-09T07:54:21.809Z,870.00
2023-05-09T07:55:21.930Z,852.00
2023-05-09T07:56:20.809Z,846.00
2023-05-09T07:57:20.784Z,834.00
2023-05-09T07:58:20.787Z,841.00
2023-05-09T07:59:21.787Z,828.00
2023-05-09T08:00:21.777Z,819.00
2023-05-09T08:01:20.822Z,819.00
2023-05-09T08:02:20.776Z,791.00
2023-05-09T08:03:20.936Z,803.00
2023-05-09T08:04:20.781Z,789.00
2023-05-09T08:05:21.755Z,782.00
2023-05-09T08:06:20.732Z,773.00
2023-05-09T08:07:21.729Z,760.00
2023-05-09T08:08:20.723Z,749.00
2023-05-09T08:09:20.697Z,743.00
2023-05-09T08:10:21.703Z,739.00
2023-05-09T08:11:21.904Z,736.00
2023-05-09T08:12:20.766Z,719.00
2023-05-09T08:13:21.864Z,707.00
2023-05-09T08:14:20.887Z,710.00
2023-05-09T08:15:20.914Z,683.00
2023-05-09T08:16:21.033Z,689.00
2023-05-09T08:17:21.007Z,679.00
2023-05-09T08:18:22.062Z,670.00
2023-05-09T08:19:21.093Z,656.00
2023-05-09T08:20:21.138Z,656.00
2023-05-09T08:21:22.317Z,643.00
2023-05-09T08:22:21.183Z,647.00
2023-05-09T08:23:21.207Z,639.00
2023-05-09T08:24:22.215Z,641.00
2023-05-09T08:25:21.254Z,634.00
2023-05-09T08:26:21.282Z,627.00
2023-05-09T08:27:22.455Z,624.00
2023-05-09T08:28:22.365Z,624.00
2023-05-09T08:29:21.386Z,627.00
2023-05-09T08:30:21.426Z,622.00
2023-05-09T08:31:21.497Z,620.00
2023-05-09T08:32:22.460Z,618.00
2023-05-09T08:33:22.506Z,621.00
2023-05-09T08:34:21.467Z,628.00
2023-05-09T08:35:22.498Z,622.00
2023-05-09T08:36:22.539Z,616.00
2023-05-09T08:37:22.574Z,618.00
2023-05-09T08:38:21.596Z,616.00
2023-05-09T08:39:22.581Z,608.00
2023-05-09T08:40:22.637Z,608.00
2023-05-09T08:41:22.635Z,609.00
2023-05-09T08:42:25.492Z,600.00
2023-05-09T08:43:21.765Z,601.00
2023-05-09T08:44:22.589Z,603.00
2023-05-09T08:45:21.926Z,601.00
2023-05-09T08:46:22.596Z,601.00
2023-05-09T08:47:22.593Z,589.00
2023-05-09T08:48:22.560Z,580.00
2023-05-09T08:49:22.561Z,532.00
2023-05-09T08:50:22.607Z,503.00
2023-05-09T08:51:22.586Z,500.00
2023-05-09T08:52:22.564Z,497.00
2023-05-09T08:53:22.608Z,495.00
2023-05-09T08:54:22.955Z,513.00
2023-05-09T08:55:21.910Z,499.00
2023-05-09T08:56:21.512Z,500.00
2023-05-09T08:57:21.526Z,496.00
2023-05-09T08:58:22.749Z,498.00
2023-05-09T08:59:22.620Z,498.00
2023-05-09T09:00:21.809Z,505.00
2023-05-09T09:01:22.502Z,502.00
2023-05-09T09:02:21.458Z,501.00
2023-05-09T09:03:22.493Z,501.00
2023-05-09T09:04:21.637Z,513.00
2023-05-09T09:05:39.948Z,500.00
2023-05-09T09:06:22.754Z,500.00
2023-05-09T09:07:22.589Z,502.00
2023-05-09T09:08:22.590Z,506.00
2023-05-09T09:09:22.572Z,513.00
2023-05-09T09:10:22.562Z,519.00
2023-05-09T09:11:21.556Z,543.00
2023-05-09T09:12:22.551Z,545.00
2023-05-09T09:13:22.562Z,535.00
2023-05-09T09:14:22.554Z,527.00
2023-05-09T09:15:22.659Z,525.00
2023-05-09T09:16:22.541Z,542.00
2023-05-09T09:17:21.537Z,551.00
2023-05-09T09:18:21.500Z,540.00
2023-05-09T09:19:22.504Z,535.00
2023-05-09T09:20:22.521Z,536.00
2023-05-09T09:21:22.509Z,554.00
2023-05-09T09:22:22.484Z,557.00
2023-05-09T09:23:21.482Z,550.00
2023-05-09T09:24:22.482Z,550.00
2023-05-09T09:25:21.506Z,537.00
2023-05-09T09:26:22.466Z,537.00
2023-05-09T09:27:22.487Z,549.00
2023-05-09T09:28:22.456Z,557.00
2023-05-09T09:29:21.430Z,558.00
2023-05-09T09:30:22.465Z,568.00
2023-05-09T09:31:22.707Z,567.00
2023-05-09T09:32:22.471Z,558.00
2023-05-09T09:33:22.486Z,555.00
2023-05-09T09:34:22.529Z,541.00
2023-05-09T09:35:21.399Z,543.00
2023-05-09T09:36:22.393Z,533.00
2023-05-09T09:37:21.388Z,544.00
2023-05-09T09:38:22.385Z,520.00
2023-05-09T09:39:21.364Z,530.00
2023-05-09T09:40:21.384Z,536.00
2023-05-09T09:41:21.460Z,544.00
2023-05-09T09:42:22.353Z,533.00
2023-05-09T09:43:22.370Z,536.00
2023-05-09T09:44:22.346Z,534.00
2023-05-09T09:45:22.316Z,538.00
2023-05-09T09:46:21.437Z,540.00
2023-05-09T09:47:22.542Z,534.00
2023-05-09T09:48:22.433Z,523.00
2023-05-09T09:49:22.303Z,516.00
2023-05-09T09:50:22.317Z,516.00
2023-05-09T09:51:21.423Z,532.00
2023-05-09T09:52:21.413Z,543.00
2023-05-09T09:53:21.430Z,557.00
2023-05-09T09:54:22.456Z,555.00
2023-05-09T09:55:22.438Z,571.00
2023-05-09T09:56:21.449Z,586.00
2023-05-09T09:57:21.505Z,597.00
2023-05-09T09:58:21.549Z,617.00
2023-05-09T09:59:21.606Z,628.00
2023-05-09T10:00:21.646Z,637.00
2023-05-09T10:01:22.828Z,662.00
2023-05-09T10:02:22.719Z,667.00
2023-05-09T10:03:21.934Z,691.00
2023-05-09T10:04:22.759Z,699.00
2023-05-09T10:05:22.799Z,711.00
2023-05-09T10:06:22.820Z,722.00
2023-05-09T10:07:22.799Z,723.00
2023-05-09T10:08:22.809Z,727.00
2023-05-09T10:09:22.836Z,744.00
2023-05-09T10:10:22.873Z,747.00
2023-05-09T10:11:22.918Z,790.00
2023-05-09T10:12:22.939Z,834.00
2023-05-09T10:13:23.025Z,857.00
2023-05-09T10:14:23.059Z,849.00
2023-05-09T10:15:23.117Z,887.00
2023-05-09T10:16:35.607Z,905.00
2023-05-09T10:17:23.446Z,906.00
2023-05-09T10:18:23.335Z,912.00
2023-05-09T10:19:23.259Z,935.00
2023-05-09T10:20:23.144Z,958.00
2023-05-09T10:21:23.148Z,1036.00
2023-05-09T10:22:22.154Z,1053.00
2023-05-09T10:23:22.135Z,1089.00
2023-05-09T10:24:23.108Z,1079.00
2023-05-09T10:25:22.125Z,1104.00
2023-05-09T10:26:23.124Z,1096.00
2023-05-09T10:27:22.107Z,1100.00
2023-05-09T10:28:23.088Z,1119.00
2023-05-09T10:29:23.112Z,1136.00
2023-05-09T10:30:23.094Z,1129.00
2023-05-09T10:31:23.239Z,1138.00
2023-05-09T10:32:22.153Z,1124.00
2023-05-09T10:33:22.215Z,1154.00
2023-05-09T10:34:22.268Z,1150.00
2023-05-09T10:35:23.420Z,1142.00
2023-05-09T10:36:22.453Z,1129.00
2023-05-09T10:37:22.532Z,1147.00
2023-05-09T10:38:22.474Z,1132.00
2023-05-09T10:39:23.523Z,1129.00
2023-05-09T10:40:23.874Z,1133.00
2023-05-09T10:41:22.935Z,1108.00
2023-05-09T10:42:23.629Z,1033.00
2023-05-09T10:43:22.629Z,1096.00
2023-05-09T10:44:22.694Z,1121.00
2023-05-09T10:45:22.661Z,1128.00
2023-05-09T10:46:23.949Z,1141.00
2023-05-09T10:47:23.697Z,1180.00
2023-05-09T10:48:23.656Z,1180.00
2023-05-09T10:49:23.647Z,1202.00
2023-05-09T10:50:23.658Z,1214.00
2023-05-09T10:51:22.837Z,1240.00
2023-05-09T10:52:22.715Z,1263.00
2023-05-09T10:53:22.693Z,1271.00
2023-05-09T10:54:22.705Z,1343.00
2023-05-09T10:55:23.773Z,1338.00
2023-05-09T10:56:22.752Z,1345.00
2023-05-09T10:57:22.772Z,1351.00
2023-05-09T10:58:23.842Z,1351.00
2023-05-09T10:59:23.909Z,1365.00
2023-05-09T11:00:22.989Z,1343.00
2023-05-09T11:01:23.975Z,1314.00
2023-05-09T11:02:23.958Z,1301.00
2023-05-09T11:03:24.124Z,1279.00
2023-05-09T11:04:24.050Z,1252.00
2023-05-09T11:05:24.005Z,1242.00
2023-05-09T11:06:24.436Z,1244.00
2023-05-09T11:07:23.108Z,1220.00
2023-05-09T11:08:23.990Z,1209.00
2023-05-09T11:09:23.022Z,1197.00
2023-05-09T11:10:24.049Z,1225.00
2023-05-09T11:11:23.089Z,1210.00
2023-05-09T11:12:23.136Z,1214.00
2023-05-09T11:13:23.253Z,1199.00
2023-05-09T11:14:24.249Z,1224.00
2023-05-09T11:15:23.296Z,1220.00
2023-05-09T11:16:24.377Z,1231.00
2023-05-09T11:17:23.519Z,1138.00
2023-05-09T11:18:24.480Z,1200.00
2023-05-09T11:19:23.533Z,1196.00
2023-05-09T11:20:23.612Z,1212.00
2023-05-09T11:21:24.726Z,1232.00
2023-05-09T11:22:24.695Z,1248.00
2023-05-09T11:23:23.883Z,1229.00
2023-05-09T11:24:23.813Z,1246.00
2023-05-09T11:25:23.863Z,1261.00
2023-05-09T11:26:24.933Z,1280.00
2023-05-09T11:27:25.008Z,1214.00
2023-05-09T11:28:25.024Z,1258.00
2023-05-09T11:29:25.091Z,1309.00
2023-05-09T11:30:24.122Z,1275.00
2023-05-09T11:31:24.209Z,1302.00
2023-05-09T11:32:25.297Z,1304.00
2023-05-09T11:33:25.241Z,1319.00
2023-05-09T11:34:24.286Z,1239.00
2023-05-09T11:35:25.498Z,1210.00
2023-05-09T11:36:24.446Z,1247.00
2023-05-09T11:37:25.454Z,1207.00
2023-05-09T11:38:25.606Z,1225.00
2023-05-09T11:39:24.514Z,1220.00
2023-05-09T11:40:25.576Z,1171.00
2023-05-09T11:41:25.948Z,1198.00
2023-05-09T11:42:24.646Z,1194.00
2023-05-09T11:43:25.656Z,1205.00
2023-05-09T11:44:24.690Z,1225.00
2023-05-09T11:45:24.689Z,1227.00
2023-05-09T11:46:24.730Z,1227.00
2023-05-09T11:47:25.729Z,1239.00
2023-05-09T11:48:25.729Z,1247.00
2023-05-09T11:49:24.749Z,1257.00
2023-05-09T11:50:25.802Z,1266.00
2023-05-09T11:51:24.810Z,1271.00
2023-05-09T11:52:24.854Z,1267.00
2023-05-09T11:53:25.870Z,1288.00
2023-05-09T11:54:25.060Z,1291.00
2023-05-09T11:55:25.984Z,1299.00
2023-05-09T11:56:26.006Z,1304.00
2023-05-09T11:57:26.047Z,1304.00
2023-05-09T11:58:26.068Z,1295.00
2023-05-09T11:59:26.127Z,1307.00
2023-05-09T12:00:26.197Z,1319.00
2023-05-09T12:01:25.204Z,1317.00
2023-05-09T12:02:25.693Z,1325.00
2023-05-09T12:03:25.673Z,1317.00
2023-05-09T12:04:25.369Z,1330.00
2023-05-09T12:05:25.398Z,1338.00
2023-05-09T12:06:26.457Z,1333.00
2023-05-09T12:07:25.502Z,1346.00
2023-05-09T12:08:25.604Z,1337.00
2023-05-09T12:09:26.597Z,1342.00
2023-05-09T12:10:27.142Z,1347.00
2023-05-09T12:11:25.698Z,1347.00
2023-05-09T12:12:25.729Z,1350.00
2023-05-09T12:13:25.845Z,1345.00
2023-05-09T12:14:26.839Z,1351.00
2023-05-09T12:15:26.857Z,1348.00
2023-05-09T12:16:26.949Z,1350.00
2023-05-09T12:17:25.964Z,1347.00
2023-05-09T12:18:26.985Z,1339.00
2023-05-09T12:19:26.036Z,1339.00
2023-05-09T12:20:27.075Z,1338.00
2023-05-09T12:21:27.128Z,1323.00
2023-05-09T12:22:27.185Z,1328.00